createdAt,value
2022-07-28T00:00:45.744Z,97692.66
2022-07-28T00:05:50.592Z,97696.63
2022-07-28T00:10:54.221Z,97688.81
2022-07-28T00:15:57.895Z,97701.91
2022-07-28T00:21:02.992Z,97697.59
2022-07-28T00:26:06.914Z,97699.28
2022-07-28T00:31:11.008Z,97692.97
2022-07-28T00:36:17.565Z,97686.47
2022-07-28T00:41:23.126Z,97685.59
2022-07-28T00:46:26.582Z,97678.25
2022-07-28T00:51:31.623Z,97675.94
2022-07-28T00:56:36.188Z,97671.34
2022-07-28T01:01:39.851Z,97661.13
2022-07-28T01:06:53.452Z,97655.97
2022-07-28T01:12:02.596Z,97665.81
2022-07-28T01:17:12.800Z,97667.13
2022-07-28T01:22:22.408Z,97677.97
2022-07-28T01:27:36.774Z,97681.28
2022-07-28T01:32:45.528Z,97675.25
2022-07-28T01:37:54.944Z,97670.16
2022-07-28T01:43:02.613Z,97682.63
2022-07-28T01:48:09.533Z,97671.22
2022-07-28T01:53:15.464Z,97662.69
2022-07-28T01:58:21.460Z,97669.38
2022-07-28T02:03:29.054Z,97665.47
2022-07-28T02:08:34.713Z,97661.72
2022-07-28T02:13:39.679Z,97644.13
2022-07-28T02:18:45.150Z,97651.38
2022-07-28T02:23:49.942Z,97646.66
2022-07-28T02:28:56.228Z,97641.19
2022-07-28T02:34:04.379Z,97639.88
2022-07-28T02:39:19.779Z,97650.38
2022-07-28T02:44:29.547Z,97650.59
2022-07-28T02:49:37.250Z,97643.81
2022-07-28T02:54:41.945Z,97646.34
2022-07-28T02:59:46.236Z,97643.97
2022-07-28T03:05:00.851Z,97648.41
2022-07-28T03:10:05.727Z,97653.91
2022-07-28T03:15:10.330Z,97653.13
2022-07-28T03:20:16.276Z,97660.84
2022-07-28T03:25:27.583Z,97667.78
2022-07-28T03:30:38.157Z,97666.47
2022-07-28T03:35:48.162Z,97677.72
2022-07-28T03:40:54.205Z,97671.94
2022-07-28T03:45:57.738Z,97663.91
2022-07-28T03:51:02.768Z,97675.84
2022-07-28T03:56:06.423Z,97674.44
2022-07-28T04:01:10.201Z,97685.25
2022-07-28T04:06:15.962Z,97677.69
2022-07-28T04:11:19.439Z,97675.47
2022-07-28T04:16:23.056Z,97676.28
2022-07-28T04:21:28.549Z,97671.75
2022-07-28T04:26:32.202Z,97675.53
2022-07-28T04:31:35.745Z,97668.19
2022-07-28T04:36:43.849Z,97667.97
2022-07-28T04:41:47.412Z,97676.84
2022-07-28T04:46:51.213Z,97681.84
2022-07-28T04:51:57.112Z,97685.63
2022-07-28T04:57:00.964Z,97678.38
2022-07-28T05:02:10.108Z,97680.34
2022-07-28T05:07:15.021Z,97679.09
2022-07-28T05:12:18.728Z,97670.59
2022-07-28T05:17:22.428Z,97677.53
2022-07-28T05:22:27.311Z,97676.44
2022-07-28T05:27:30.855Z,97673.41
2022-07-28T05:32:34.448Z,97676.34
2022-07-28T05:37:39.694Z,97663.31
2022-07-28T05:42:44.973Z,97679.09
2022-07-28T05:47:49.978Z,97670.50
2022-07-28T05:52:55.162Z,97681.19
2022-07-28T05:58:00.345Z,97680.19
2022-07-28T06:03:04.302Z,97683.66
2022-07-28T06:08:09.585Z,97686.81
2022-07-28T06:13:15.980Z,97678.06
2022-07-28T06:18:19.863Z,97679.88
2022-07-28T06:23:25.184Z,97677.66
2022-07-28T06:28:28.632Z,97673.53
2022-07-28T06:33:32.407Z,97674.78
2022-07-28T06:38:37.498Z,97667.75
2022-07-28T06:43:41.083Z,97659.03
2022-07-28T06:48:46.087Z,97662.94
2022-07-28T06:53:51.366Z,97661.19
2022-07-28T06:58:55.146Z,97662.69
2022-07-28T07:03:59.567Z,97655.63
2022-07-28T07:09:04.955Z,97669.59
2022-07-28T07:14:08.684Z,97662.50
2022-07-28T07:19:15.771Z,97648.63
2022-07-28T07:24:21.510Z,97657.28
2022-07-28T07:29:30.505Z,97654.00
2022-07-28T07:34:34.965Z,97654.31
2022-07-28T07:39:40.228Z,97640.38
2022-07-28T07:44:50.426Z,97640.19
2022-07-28T07:49:54.011Z,97628.34
2022-07-28T07:54:59.607Z,97623.31
2022-07-28T08:00:03.490Z,97623.19
2022-07-28T08:05:08.945Z,97618.91
2022-07-28T08:10:15.381Z,97617.81
2022-07-28T08:15:19.189Z,97611.81
2022-07-28T08:20:23.083Z,97617.88
2022-07-28T08:25:28.251Z,97611.69
2022-07-28T08:30:33.012Z,97611.91
2022-07-28T08:35:36.970Z,97613.38
2022-07-28T08:40:46.677Z,97612.84
2022-07-28T08:45:58.148Z,97612.16
2022-07-28T08:51:04.522Z,97600.56
2022-07-28T08:56:13.342Z,97609.41
2022-07-28T09:01:18.061Z,97596.88
2022-07-28T09:06:23.781Z,97587.28
2022-07-28T09:11:30.253Z,97578.97
2022-07-28T09:16:34.358Z,97589.59
2022-07-28T09:21:38.533Z,97591.13
2022-07-28T09:27:02.853Z,97587.84
2022-07-28T09:32:07.267Z,97582.91
2022-07-28T09:37:20.107Z,97586.38
2022-07-28T09:42:46.717Z,97578.59
2022-07-28T09:47:50.321Z,97576.13
2022-07-28T09:52:53.961Z,97568.81
2022-07-28T09:57:59.020Z,97578.50
2022-07-28T10:03:02.864Z,97568.91
2022-07-28T10:08:06.766Z,97571.47
2022-07-28T10:13:11.810Z,97560.81
2022-07-28T10:18:15.627Z,97553.41
2022-07-28T10:23:20.518Z,97550.63
2022-07-28T10:28:26.462Z,97539.31
2022-07-28T10:33:33.119Z,97533.59
2022-07-28T10:38:38.136Z,97524.50
2022-07-28T10:43:45.479Z,97532.38
2022-07-28T10:48:50.129Z,97511.59
2022-07-28T10:53:57.269Z,97510.00
2022-07-28T10:59:12.396Z,97518.06
2022-07-28T11:04:52.751Z,97514.84
2022-07-28T11:10:16.762Z,97514.97
2022-07-28T11:15:33.331Z,97502.34
2022-07-28T11:21:11.608Z,97503.06
2022-07-28T11:26:38.070Z,97498.44
2022-07-28T11:32:07.674Z,97483.66
2022-07-28T11:37:15.144Z,97491.25
2022-07-28T11:42:27.613Z,97469.63
2022-07-28T11:47:32.918Z,97477.72
2022-07-28T11:52:37.847Z,97455.59
2022-07-28T11:57:44.161Z,97470.84
2022-07-28T12:02:49.620Z,97456.47
2022-07-28T12:07:53.954Z,97455.91
2022-07-28T12:12:59.423Z,97445.19
2022-07-28T12:18:05.012Z,97438.53
2022-07-28T12:23:10.603Z,97446.44
2022-07-28T12:28:18.925Z,97428.41
2022-07-28T12:33:29.759Z,97432.66
2022-07-28T12:38:34.262Z,97428.53
2022-07-28T12:43:37.947Z,97423.13
2022-07-28T12:48:43.027Z,97414.75
2022-07-28T12:53:52.422Z,97421.53
2022-07-28T12:59:07.509Z,97411.94
2022-07-28T13:04:12.915Z,97420.84
2022-07-28T13:09:24.274Z,97413.63
2022-07-28T13:14:43.732Z,97413.63
2022-07-28T13:19:51.110Z,97405.25
2022-07-28T13:24:57.501Z,97390.13
2022-07-28T13:30:02.382Z,97380.88
2022-07-28T13:35:14.896Z,97385.44
2022-07-28T13:40:19.636Z,97381.25
2022-07-28T13:45:24.009Z,97379.75
2022-07-28T13:50:30.496Z,97364.56
2022-07-28T13:55:34.207Z,97354.59
2022-07-28T14:00:38.359Z,97358.19
2022-07-28T14:05:43.548Z,97358.19
2022-07-28T14:10:48.489Z,97357.13
2022-07-28T14:16:02.457Z,97338.28
2022-07-28T14:21:11.983Z,97340.22
2022-07-28T14:26:34.829Z,97340.22
2022-07-28T14:31:39.520Z,97343.91
2022-07-28T14:36:45.208Z,97350.38
2022-07-28T14:41:50.298Z,97340.34
2022-07-28T14:46:54.427Z,97334.84
2022-07-28T14:52:00.065Z,97327.00
2022-07-28T14:57:04.125Z,97325.16
2022-07-28T15:02:09.241Z,97308.72
2022-07-28T15:07:14.808Z,97321.38
2022-07-28T15:12:18.935Z,97316.69
2022-07-28T15:17:22.573Z,97314.91
2022-07-28T15:22:28.015Z,97318.66
2022-07-28T15:27:33.760Z,97323.88
2022-07-28T15:32:54.204Z,97318.78
2022-07-28T15:38:01.371Z,97317.97
2022-07-28T15:43:05.844Z,97318.03
2022-07-28T15:48:10.226Z,97311.50
2022-07-28T15:53:16.444Z,97316.53
2022-07-28T15:58:22.494Z,97308.78
2022-07-28T16:03:27.026Z,97309.31
2022-07-28T16:08:32.737Z,97310.28
2022-07-28T16:13:37.569Z,97300.13
2022-07-28T16:18:43.838Z,97302.75
2022-07-28T16:23:49.476Z,97308.88
2022-07-28T16:28:53.323Z,97296.88
2022-07-28T16:33:58.130Z,97307.31
2022-07-28T16:39:03.749Z,97299.88
2022-07-28T16:44:08.016Z,97299.41
2022-07-28T16:49:11.612Z,97304.88
2022-07-28T16:54:17.556Z,97302.06
2022-07-28T16:59:22.039Z,97300.09
2022-07-28T17:04:26.581Z,97304.22
2022-07-28T17:09:31.995Z,97309.69
2022-07-28T17:14:36.189Z,97315.75
2022-07-28T17:19:46.447Z,97313.53
2022-07-28T17:24:52.609Z,97312.72
2022-07-28T17:29:57.968Z,97314.19
2022-07-28T17:35:01.617Z,97319.81
2022-07-28T17:40:08.930Z,97325.81
2022-07-28T17:45:13.966Z,97322.75
2022-07-28T17:50:18.924Z,97325.03
2022-07-28T17:55:40.707Z,97325.47
2022-07-28T18:01:10.598Z,97324.22
2022-07-28T18:06:15.879Z,97321.91
2022-07-28T18:11:21.051Z,97327.50
2022-07-28T18:16:24.827Z,97325.59
2022-07-28T18:21:28.750Z,97332.75
2022-07-28T18:26:33.727Z,97335.00
2022-07-28T18:31:43.816Z,97338.09
2022-07-28T18:36:50.126Z,97350.66
2022-07-28T18:41:57.406Z,97346.06
2022-07-28T18:47:02.296Z,97340.84
2022-07-28T18:52:06.468Z,97341.63
2022-07-28T18:57:11.855Z,97345.41
2022-07-28T19:02:16.716Z,97359.72
2022-07-28T19:07:21.754Z,97375.63
2022-07-28T19:12:28.968Z,97379.06
2022-07-28T19:17:33.916Z,97386.28
2022-07-28T19:22:38.147Z,97404.31
2022-07-28T19:27:43.940Z,97409.47
2022-07-28T19:32:47.494Z,97416.75
2022-07-28T19:37:51.654Z,97424.66
2022-07-28T19:42:57.650Z,97424.69
2022-07-28T19:48:03.444Z,97430.88
2022-07-28T19:53:07.374Z,97437.28
2022-07-28T19:58:21.142Z,97432.97
2022-07-28T20:04:01.687Z,97441.53
2022-07-28T20:08:49.935Z,97446.59
2022-07-28T20:13:54.753Z,97442.72
2022-07-28T20:18:59.775Z,97449.09
2022-07-28T20:24:04.923Z,97446.22
2022-07-28T20:29:12.369Z,97459.06
2022-07-28T20:34:17.679Z,97460.53
2022-07-28T20:39:43.975Z,97467.69
2022-07-28T20:44:47.522Z,97463.69
2022-07-28T20:49:51.337Z,97460.38
2022-07-28T20:54:55.448Z,97450.78
2022-07-28T21:00:00.924Z,97451.97
2022-07-28T21:05:04.704Z,97466.28
2022-07-28T21:10:12.176Z,97467.50
2022-07-28T21:15:17.141Z,97469.69
2022-07-28T21:20:21.659Z,97479.31
2022-07-28T21:25:25.587Z,97491.59
2022-07-28T21:30:30.681Z,97505.03
2022-07-28T21:35:35.063Z,97514.16
2022-07-28T21:40:39.483Z,97516.06
2022-07-28T21:45:46.750Z,97524.06
2022-07-28T21:50:51.135Z,97519.47
2022-07-28T21:55:54.941Z,97519.38
2022-07-28T22:01:02.802Z,97527.28
2022-07-28T22:06:08.388Z,97529.94
2022-07-28T22:11:12.148Z,97523.78
2022-07-28T22:16:18.167Z,97526.97
2022-07-28T22:21:21.636Z,97520.59
2022-07-28T22:26:26.470Z,97512.81
2022-07-28T22:31:31.609Z,97519.75
2022-07-28T22:36:35.404Z,97524.00
2022-07-28T22:41:38.922Z,97533.06
2022-07-28T22:46:44.355Z,97526.53
2022-07-28T22:51:48.342Z,97533.81
2022-07-28T22:56:52.059Z,97530.56
2022-07-28T23:01:56.862Z,97534.38
2022-07-28T23:07:01.993Z,97525.59
2022-07-28T23:12:06.154Z,97519.63
2022-07-28T23:17:11.093Z,97511.03
2022-07-28T23:22:14.605Z,97532.09
2022-07-28T23:27:18.400Z,97514.25
2022-07-28T23:32:23.422Z,97522.25
2022-07-28T23:37:26.894Z,97529.09
2022-07-28T23:42:30.336Z,97524.06
2022-07-28T23:47:35.333Z,97506.56
2022-07-28T23:52:38.864Z,97499.22
2022-07-28T23:57:42.605Z,97507.66
